createdAt,value
2019-05-30T00:01:36.830Z,12.37
2019-05-30T00:04:07.751Z,10.17
2019-05-30T00:06:38.655Z,10.23
2019-05-30T00:09:10.168Z,10.17
2019-05-30T00:11:40.673Z,10.70
2019-05-30T00:14:10.594Z,13.27
2019-05-30T00:16:41.022Z,10.27
2019-05-30T00:19:10.975Z,10.50
2019-05-30T00:21:40.893Z,11.20
2019-05-30T00:24:10.842Z,11.13
2019-05-30T00:26:40.802Z,9.93
2019-05-30T00:29:10.769Z,10.47
2019-05-30T00:31:40.816Z,9.70
2019-05-30T00:34:10.892Z,10.77
2019-05-30T00:36:40.776Z,10.70
2019-05-30T00:39:10.641Z,11.77
2019-05-30T00:41:40.558Z,10.73
2019-05-30T00:44:10.499Z,11.57
2019-05-30T00:46:40.407Z,10.17
2019-05-30T00:49:10.281Z,10.23
2019-05-30T00:51:40.116Z,10.23
2019-05-30T00:54:10.059Z,10.83
2019-05-30T00:56:40.050Z,10.80
2019-05-30T00:59:09.908Z,10.67
2019-05-30T01:01:39.756Z,10.10
2019-05-30T01:04:09.695Z,10.80
2019-05-30T01:06:39.631Z,9.80
2019-05-30T01:09:09.496Z,14.77
2019-05-30T01:11:39.508Z,15.10
2019-05-30T01:14:09.354Z,11.00
2019-05-30T01:16:42.536Z,12.70
2019-05-30T01:19:11.008Z,10.73
2019-05-30T01:21:41.556Z,11.43
2019-05-30T01:24:11.466Z,10.83
2019-05-30T01:26:41.439Z,11.90
2019-05-30T01:29:11.382Z,10.83
2019-05-30T01:31:41.334Z,10.37
2019-05-30T01:34:11.188Z,11.40
2019-05-30T01:36:41.082Z,12.37
2019-05-30T01:39:11.012Z,11.20
2019-05-30T01:41:41.011Z,11.17
2019-05-30T01:44:10.870Z,10.90
2019-05-30T01:46:40.819Z,11.50
2019-05-30T01:49:10.735Z,10.07
2019-05-30T01:51:40.667Z,10.97
2019-05-30T01:54:10.529Z,10.07
2019-05-30T01:56:40.443Z,10.73
2019-05-30T01:59:10.330Z,10.90
2019-05-30T02:01:40.256Z,11.13
2019-05-30T02:04:10.138Z,10.20
2019-05-30T02:06:39.988Z,12.23
2019-05-30T02:09:11.891Z,10.83
2019-05-30T02:11:41.519Z,11.53
2019-05-30T02:14:11.467Z,11.27
2019-05-30T02:16:41.608Z,11.67
2019-05-30T02:19:11.690Z,10.80
2019-05-30T02:21:41.630Z,10.23
2019-05-30T02:24:12.311Z,12.60
2019-05-30T02:26:42.421Z,11.50
2019-05-30T02:29:12.350Z,11.23
2019-05-30T02:31:42.292Z,10.77
2019-05-30T02:34:12.466Z,13.03
2019-05-30T02:36:43.467Z,10.90
2019-05-30T02:39:13.409Z,11.57
2019-05-30T02:41:43.331Z,9.07
2019-05-30T02:44:13.415Z,8.90
2019-05-30T02:46:43.273Z,9.17
2019-05-30T02:49:13.727Z,9.67
2019-05-30T02:51:44.081Z,9.80
2019-05-30T02:54:14.503Z,9.00
2019-05-30T02:56:44.450Z,8.63
2019-05-30T02:59:14.440Z,9.00
2019-05-30T03:01:59.968Z,8.90
2019-05-30T03:04:16.051Z,9.27
2019-05-30T03:06:46.080Z,8.73
2019-05-30T03:09:16.491Z,9.83
2019-05-30T03:11:46.919Z,9.17
2019-05-30T03:14:19.732Z,8.63
2019-05-30T03:16:48.580Z,10.50
2019-05-30T03:19:19.358Z,10.37
2019-05-30T03:21:49.469Z,10.90
2019-05-30T03:24:19.410Z,9.33
2019-05-30T03:26:49.439Z,9.90
2019-05-30T03:29:19.523Z,9.97
2019-05-30T03:31:50.618Z,9.73
2019-05-30T03:34:27.413Z,12.47
2019-05-30T03:36:52.244Z,11.07
2019-05-30T03:39:22.324Z,11.13
2019-05-30T03:41:52.391Z,13.03
2019-05-30T03:44:22.348Z,11.13
2019-05-30T03:46:55.327Z,10.60
2019-05-30T03:49:28.673Z,9.90
2019-05-30T03:52:01.016Z,10.97
2019-05-30T03:54:31.904Z,9.07
2019-05-30T03:57:09.052Z,9.10
2019-05-30T03:59:50.862Z,8.97
2019-05-30T04:02:26.607Z,9.47
2019-05-30T04:04:59.609Z,7.77
2019-05-30T04:07:32.191Z,10.17
2019-05-30T04:10:03.849Z,7.80
2019-05-30T04:12:53.349Z,9.57
2019-05-30T04:15:35.968Z,8.17
2019-05-30T04:18:06.961Z,8.07
2019-05-30T04:20:37.186Z,8.37
2019-05-30T04:23:08.518Z,9.10
2019-05-30T04:25:38.659Z,8.27
2019-05-30T04:28:09.749Z,7.83
2019-05-30T04:30:39.753Z,8.17
2019-05-30T04:33:19.508Z,7.20
2019-05-30T04:35:41.299Z,8.00
2019-05-30T04:38:12.707Z,6.60
2019-05-30T04:40:43.953Z,6.97
2019-05-30T04:43:15.323Z,7.70
2019-05-30T04:45:45.608Z,7.10
2019-05-30T04:48:16.005Z,7.10
2019-05-30T04:50:46.191Z,7.90
2019-05-30T04:53:16.421Z,6.57
2019-05-30T04:55:46.905Z,6.80
2019-05-30T04:58:17.909Z,7.00
2019-05-30T05:00:48.679Z,7.00
2019-05-30T05:03:40.582Z,6.63
2019-05-30T05:05:50.178Z,6.73
2019-05-30T05:08:20.186Z,7.33
2019-05-30T05:10:50.106Z,7.00
2019-05-30T05:13:20.428Z,7.63
2019-05-30T05:15:50.574Z,7.43
2019-05-30T05:18:21.112Z,7.23
2019-05-30T05:20:51.310Z,8.10
2019-05-30T05:23:21.373Z,7.77
2019-05-30T05:26:00.323Z,8.10
2019-05-30T05:28:24.017Z,8.17
2019-05-30T05:30:54.071Z,8.33
2019-05-30T05:33:24.755Z,7.67
2019-05-30T05:35:54.781Z,7.63
2019-05-30T05:38:24.704Z,8.03
2019-05-30T05:40:54.581Z,9.03
2019-05-30T05:43:24.567Z,9.77
2019-05-30T05:45:54.455Z,8.20
2019-05-30T05:48:24.733Z,8.53
2019-05-30T05:50:54.994Z,8.80
2019-05-30T05:53:25.196Z,8.63
2019-05-30T05:55:56.327Z,9.17
2019-05-30T05:58:26.574Z,8.90
2019-05-30T06:00:56.580Z,9.30
2019-05-30T06:03:28.309Z,9.30
2019-05-30T06:05:59.513Z,9.07
2019-05-30T06:08:30.000Z,9.57
2019-05-30T06:11:00.146Z,8.77
2019-05-30T06:13:30.265Z,8.87
2019-05-30T06:16:00.204Z,9.07
2019-05-30T06:18:30.419Z,10.27
2019-05-30T06:21:00.618Z,9.83
2019-05-30T06:23:30.677Z,9.10
2019-05-30T06:26:00.593Z,10.13
2019-05-30T06:28:30.464Z,9.27
2019-05-30T06:31:00.412Z,10.27
2019-05-30T06:33:30.332Z,10.27
2019-05-30T06:36:02.237Z,9.83
2019-05-30T06:38:32.297Z,10.03
2019-05-30T06:41:02.328Z,9.80
2019-05-30T06:43:32.443Z,10.07
2019-05-30T06:46:02.286Z,9.33
2019-05-30T06:48:32.232Z,9.80
2019-05-30T06:51:02.660Z,9.03
2019-05-30T06:53:32.585Z,8.63
2019-05-30T06:56:02.463Z,8.73
2019-05-30T06:58:46.430Z,7.97
2019-05-30T07:01:04.206Z,9.10
2019-05-30T07:03:34.849Z,8.13
2019-05-30T07:06:05.676Z,14.83
2019-05-30T07:08:36.001Z,13.83
2019-05-30T07:11:06.008Z,11.30
2019-05-30T07:13:36.433Z,16.73
2019-05-30T07:16:06.609Z,25.80
2019-05-30T07:18:37.014Z,11.77
2019-05-30T07:21:07.206Z,12.53
2019-05-30T07:23:39.662Z,8.50
2019-05-30T07:26:08.846Z,9.77
2019-05-30T07:28:38.731Z,23.03
2019-05-30T07:31:08.797Z,8.97
2019-05-30T07:33:38.828Z,5.90
2019-05-30T07:36:08.807Z,7.13
2019-05-30T07:38:38.681Z,13.97
2019-05-30T07:41:08.652Z,5.57
2019-05-30T07:43:38.577Z,5.07
2019-05-30T07:46:08.510Z,6.03
2019-05-30T07:48:38.664Z,8.27
2019-05-30T07:51:08.697Z,6.90
2019-05-30T07:53:39.181Z,6.77
2019-05-30T07:56:09.303Z,5.67
2019-05-30T07:58:39.262Z,4.07
2019-05-30T08:01:11.751Z,4.00
2019-05-30T08:03:42.295Z,4.10
2019-05-30T08:06:12.887Z,9.17
2019-05-30T08:08:43.004Z,5.90
2019-05-30T08:11:12.945Z,3.53
2019-05-30T08:13:44.324Z,3.83
2019-05-30T08:16:14.273Z,4.40
2019-05-30T08:18:44.821Z,3.03
2019-05-30T08:21:17.704Z,4.17
2019-05-30T08:23:47.882Z,4.07
2019-05-30T08:26:28.092Z,4.30
2019-05-30T08:28:58.338Z,3.03
2019-05-30T08:31:28.744Z,4.63
2019-05-30T08:34:01.667Z,3.87
2019-05-30T08:36:32.959Z,3.80
2019-05-30T08:39:04.693Z,2.80
2019-05-30T08:41:35.704Z,3.40
2019-05-30T08:44:06.339Z,4.07
2019-05-30T08:46:37.855Z,3.10
2019-05-30T08:49:11.158Z,2.93
2019-05-30T08:51:42.400Z,3.37
2019-05-30T08:54:14.590Z,5.23
2019-05-30T08:56:47.221Z,3.30
2019-05-30T08:59:17.888Z,3.10
2019-05-30T09:01:52.851Z,8.20
2019-05-30T09:04:21.005Z,6.10
2019-05-30T09:06:52.480Z,3.80
2019-05-30T09:09:22.582Z,4.33
2019-05-30T09:11:52.491Z,6.47
2019-05-30T09:14:22.364Z,5.53
2019-05-30T09:16:52.979Z,2.93
2019-05-30T09:19:23.103Z,3.03
2019-05-30T09:21:53.010Z,2.90
2019-05-30T09:24:23.561Z,3.10
2019-05-30T09:26:53.897Z,3.23
2019-05-30T09:29:23.828Z,2.60
2019-05-30T09:31:53.754Z,2.67
2019-05-30T09:34:23.608Z,2.87
2019-05-30T09:36:54.486Z,3.23
2019-05-30T09:39:24.527Z,3.60
2019-05-30T09:41:54.538Z,2.53
2019-05-30T09:44:24.621Z,3.03
2019-05-30T09:46:54.551Z,2.60
2019-05-30T09:49:24.564Z,3.57
2019-05-30T09:51:54.487Z,3.80
2019-05-30T09:54:24.462Z,2.37
2019-05-30T09:56:57.225Z,4.77
2019-05-30T09:59:26.437Z,2.47
2019-05-30T10:01:56.362Z,2.07
2019-05-30T10:04:26.283Z,3.10
2019-05-30T10:06:56.204Z,2.53
2019-05-30T10:09:26.175Z,3.40
2019-05-30T10:11:56.110Z,2.27
2019-05-30T10:14:25.983Z,2.97
2019-05-30T10:16:56.838Z,2.10
2019-05-30T10:19:27.464Z,2.57
2019-05-30T10:21:57.353Z,2.43
2019-05-30T10:24:27.380Z,2.70
2019-05-30T10:26:58.360Z,2.90
2019-05-30T10:29:28.304Z,2.27
2019-05-30T10:31:58.190Z,3.63
2019-05-30T10:34:28.120Z,2.40
2019-05-30T10:36:57.983Z,1.90
2019-05-30T10:39:27.934Z,2.07
2019-05-30T10:41:57.892Z,1.70
2019-05-30T10:44:27.869Z,2.57
2019-05-30T10:46:58.044Z,4.27
2019-05-30T10:49:34.831Z,3.43
2019-05-30T10:51:59.837Z,3.17
2019-05-30T10:54:29.922Z,4.10
2019-05-30T10:57:00.934Z,4.40
2019-05-30T10:59:30.926Z,2.23
2019-05-30T11:02:00.831Z,2.20
2019-05-30T11:04:30.729Z,2.47
2019-05-30T11:07:12.757Z,2.70
2019-05-30T11:09:48.747Z,2.77
2019-05-30T11:12:19.683Z,3.37
2019-05-30T11:14:50.242Z,2.83
2019-05-30T11:17:21.255Z,2.53
2019-05-30T11:19:51.777Z,2.23
2019-05-30T11:22:23.199Z,2.37
2019-05-30T11:24:54.378Z,3.00
2019-05-30T11:27:24.449Z,2.80
2019-05-30T11:29:54.797Z,3.00
2019-05-30T11:32:24.753Z,4.60
2019-05-30T11:34:55.437Z,4.17
2019-05-30T11:37:25.382Z,4.70
2019-05-30T11:39:55.355Z,3.00
2019-05-30T11:42:25.407Z,8.60
2019-05-30T11:44:59.956Z,4.20
2019-05-30T11:47:30.726Z,2.43
2019-05-30T11:50:00.627Z,3.87
2019-05-30T11:52:30.548Z,3.10
2019-05-30T11:55:00.438Z,4.97
2019-05-30T11:57:30.800Z,3.00
2019-05-30T12:00:00.674Z,2.50
2019-05-30T12:02:30.654Z,3.13
2019-05-30T12:05:00.864Z,5.10
2019-05-30T12:07:36.456Z,2.23
2019-05-30T12:10:02.533Z,3.20
2019-05-30T12:12:32.463Z,4.53
2019-05-30T12:15:02.848Z,2.80
2019-05-30T12:17:32.884Z,5.80
2019-05-30T12:20:02.903Z,5.03
2019-05-30T12:22:32.833Z,4.57
2019-05-30T12:25:02.844Z,3.83
2019-05-30T12:27:34.182Z,2.40
2019-05-30T12:30:06.941Z,1.93
2019-05-30T12:32:36.888Z,2.33
2019-05-30T12:35:08.244Z,2.87
2019-05-30T12:37:53.636Z,1.93
2019-05-30T12:40:11.697Z,2.00
2019-05-30T12:42:41.632Z,2.27
2019-05-30T12:45:12.232Z,2.80
2019-05-30T12:47:42.149Z,2.73
2019-05-30T12:50:12.738Z,2.43
2019-05-30T12:52:42.649Z,1.80
2019-05-30T12:55:12.933Z,2.00
2019-05-30T12:57:42.851Z,2.07
2019-05-30T13:00:19.312Z,2.77
2019-05-30T13:02:49.263Z,2.33
2019-05-30T13:05:19.363Z,1.80
2019-05-30T13:07:49.454Z,1.70
2019-05-30T13:10:19.819Z,3.03
2019-05-30T13:12:49.681Z,1.93
2019-05-30T13:15:19.871Z,2.73
2019-05-30T13:17:49.817Z,4.37
2019-05-30T13:20:20.182Z,4.53
2019-05-30T13:22:50.128Z,2.00
2019-05-30T13:25:21.961Z,2.20
2019-05-30T13:27:52.167Z,2.13
2019-05-30T13:30:22.645Z,1.90
2019-05-30T13:32:52.591Z,2.13
2019-05-30T13:35:22.555Z,1.70
2019-05-30T13:37:52.534Z,2.07
2019-05-30T13:40:25.455Z,3.37
2019-05-30T13:42:54.520Z,2.13
2019-05-30T13:45:24.498Z,4.13
2019-05-30T13:47:54.432Z,3.70
2019-05-30T13:50:24.557Z,2.67
2019-05-30T13:52:54.496Z,1.80
2019-05-30T13:55:27.445Z,2.10
2019-05-30T13:57:56.060Z,2.00
2019-05-30T14:00:26.957Z,3.83
2019-05-30T14:02:56.957Z,2.33
2019-05-30T14:05:26.972Z,4.30
2019-05-30T14:07:56.971Z,3.20
2019-05-30T14:10:27.006Z,3.80
2019-05-30T14:12:56.950Z,2.07
2019-05-30T14:15:26.887Z,2.90
2019-05-30T14:17:58.634Z,2.73
2019-05-30T14:20:28.811Z,4.00
2019-05-30T14:22:58.762Z,3.20
2019-05-30T14:25:28.717Z,2.50
2019-05-30T14:27:58.652Z,4.77
2019-05-30T14:30:28.656Z,2.93
2019-05-30T14:32:58.710Z,2.27
2019-05-30T14:35:28.705Z,3.43
2019-05-30T14:37:58.698Z,5.00
2019-05-30T14:40:28.786Z,3.07
2019-05-30T14:42:58.678Z,3.70
2019-05-30T14:45:29.396Z,1.90
2019-05-30T14:47:59.269Z,2.90
2019-05-30T14:50:29.286Z,4.20
2019-05-30T14:52:59.224Z,2.13
2019-05-30T14:55:29.085Z,2.10
2019-05-30T14:58:00.103Z,2.70
2019-05-30T15:00:31.459Z,2.23
2019-05-30T15:03:01.387Z,2.00
2019-05-30T15:05:31.293Z,1.90
2019-05-30T15:08:01.472Z,2.80
2019-05-30T15:10:31.493Z,1.97
2019-05-30T15:13:01.904Z,2.03
2019-05-30T15:15:31.828Z,1.90
2019-05-30T15:18:01.691Z,1.80
2019-05-30T15:20:31.916Z,2.90
2019-05-30T15:23:01.829Z,2.53
2019-05-30T15:25:31.765Z,2.67
2019-05-30T15:28:01.785Z,2.47
2019-05-30T15:30:31.688Z,2.50
2019-05-30T15:33:01.641Z,2.07
2019-05-30T15:35:31.652Z,1.83
2019-05-30T15:38:01.487Z,2.60
2019-05-30T15:40:31.429Z,1.73
2019-05-30T15:43:01.448Z,3.07
2019-05-30T15:45:31.504Z,2.70
2019-05-30T15:48:01.450Z,2.00
2019-05-30T15:50:31.370Z,2.83
2019-05-30T15:53:01.237Z,3.37
2019-05-30T15:55:31.241Z,1.80
2019-05-30T15:58:01.174Z,1.97
2019-05-30T16:00:31.473Z,2.20
2019-05-30T16:03:01.479Z,1.50
2019-05-30T16:05:32.315Z,1.70
2019-05-30T16:08:02.251Z,2.63
2019-05-30T16:10:32.193Z,2.57
2019-05-30T16:13:02.031Z,2.53
2019-05-30T16:15:31.913Z,2.77
2019-05-30T16:18:04.695Z,2.23
2019-05-30T16:20:34.636Z,3.13
2019-05-30T16:23:04.501Z,1.97
2019-05-30T16:25:34.375Z,2.10
2019-05-30T16:28:04.381Z,1.67
2019-05-30T16:30:34.458Z,1.97
2019-05-30T16:33:04.447Z,2.70
2019-05-30T16:35:34.334Z,2.20
2019-05-30T16:38:04.396Z,2.30
2019-05-30T16:40:34.395Z,2.40
2019-05-30T16:43:04.318Z,3.90
2019-05-30T16:45:34.251Z,3.53
2019-05-30T16:48:04.375Z,3.70
2019-05-30T16:50:34.327Z,2.00
2019-05-30T16:53:04.251Z,1.90
2019-05-30T16:55:34.181Z,2.37
2019-05-30T16:58:04.441Z,2.13
2019-05-30T17:00:34.510Z,3.27
2019-05-30T17:03:05.392Z,2.13
2019-05-30T17:05:35.283Z,2.07
2019-05-30T17:08:05.297Z,4.60
2019-05-30T17:10:35.171Z,1.43
2019-05-30T17:13:05.191Z,2.57
2019-05-30T17:15:35.123Z,4.20
2019-05-30T17:18:05.438Z,2.07
2019-05-30T17:20:35.278Z,2.10
2019-05-30T17:23:05.558Z,3.70
2019-05-30T17:25:35.499Z,2.53
2019-05-30T17:28:06.484Z,5.10
2019-05-30T17:30:36.403Z,7.43
2019-05-30T17:33:06.274Z,5.03
2019-05-30T17:35:36.229Z,5.03
2019-05-30T17:38:06.228Z,2.03
2019-05-30T17:40:44.629Z,2.00
2019-05-30T17:43:07.800Z,5.10
2019-05-30T17:45:37.671Z,1.93
2019-05-30T17:48:16.498Z,4.57
2019-05-30T17:50:40.227Z,1.73
2019-05-30T17:53:10.165Z,1.90
2019-05-30T17:55:40.175Z,1.67
2019-05-30T17:58:10.502Z,2.87
2019-05-30T18:00:40.811Z,3.73
2019-05-30T18:03:14.902Z,3.07
2019-05-30T18:05:45.966Z,2.70
2019-05-30T18:08:18.279Z,2.93
2019-05-30T18:10:53.911Z,1.67
2019-05-30T18:13:21.255Z,1.97
2019-05-30T18:15:51.627Z,2.10
2019-05-30T18:18:23.118Z,2.67
2019-05-30T18:20:54.196Z,4.63
2019-05-30T18:23:24.052Z,3.07
2019-05-30T18:25:54.076Z,2.50
2019-05-30T18:28:23.977Z,2.17
2019-05-30T18:30:53.901Z,1.83
2019-05-30T18:33:24.079Z,4.20
2019-05-30T18:35:54.071Z,3.13
2019-05-30T18:38:24.271Z,3.33
2019-05-30T18:41:09.894Z,3.20
2019-05-30T18:43:26.758Z,1.90
2019-05-30T18:45:56.796Z,2.23
2019-05-30T18:48:27.283Z,2.37
2019-05-30T18:50:57.325Z,2.27
2019-05-30T18:53:28.304Z,1.87
2019-05-30T18:55:58.361Z,3.53
2019-05-30T18:58:28.925Z,2.37
2019-05-30T19:00:58.932Z,2.30
2019-05-30T19:03:28.884Z,2.67
2019-05-30T19:05:58.729Z,2.07
2019-05-30T19:08:29.807Z,2.67
2019-05-30T19:10:59.941Z,2.30
2019-05-30T19:13:30.992Z,2.20
2019-05-30T19:16:01.011Z,2.57
2019-05-30T19:18:31.617Z,2.13
2019-05-30T19:21:01.749Z,2.37
2019-05-30T19:23:32.027Z,2.43
2019-05-30T19:26:02.002Z,1.83
2019-05-30T19:28:32.512Z,3.60
2019-05-30T19:31:02.535Z,2.10
2019-05-30T19:33:32.929Z,2.40
2019-05-30T19:36:04.054Z,2.40
2019-05-30T19:38:33.990Z,2.60
2019-05-30T19:41:04.980Z,3.60
2019-05-30T19:43:35.904Z,3.07
2019-05-30T19:46:05.979Z,2.90
2019-05-30T19:48:36.516Z,3.70
2019-05-30T19:51:06.484Z,4.53
2019-05-30T19:53:37.023Z,3.93
2019-05-30T19:56:07.113Z,3.37
2019-05-30T19:58:37.716Z,3.47
2019-05-30T20:01:09.760Z,4.93
2019-05-30T20:03:46.632Z,4.40
2019-05-30T20:06:13.399Z,3.10
2019-05-30T20:08:55.141Z,2.90
2019-05-30T20:11:17.736Z,3.00
2019-05-30T20:13:49.915Z,3.67
2019-05-30T20:16:20.384Z,4.57
2019-05-30T20:18:52.630Z,3.67
2019-05-30T20:21:23.749Z,3.27
2019-05-30T20:23:59.072Z,3.37
2019-05-30T20:26:28.681Z,4.33
2019-05-30T20:29:00.501Z,5.90
2019-05-30T20:31:33.282Z,3.27
2019-05-30T20:34:06.576Z,3.77
2019-05-30T20:36:38.462Z,4.80
2019-05-30T20:39:08.630Z,5.40
2019-05-30T20:41:38.894Z,4.23
2019-05-30T20:44:09.280Z,5.33
2019-05-30T20:46:39.301Z,3.40
2019-05-30T20:49:10.975Z,3.40
2019-05-30T20:51:41.312Z,2.80
2019-05-30T20:54:13.240Z,3.37
2019-05-30T20:56:44.126Z,4.57
2019-05-30T20:59:17.989Z,3.50
2019-05-30T21:01:48.497Z,2.73
2019-05-30T21:04:21.503Z,2.77
2019-05-30T21:06:53.769Z,3.20
2019-05-30T21:09:29.150Z,3.60
2019-05-30T21:11:59.363Z,2.67
2019-05-30T21:14:32.527Z,2.93
2019-05-30T21:17:04.800Z,4.23
2019-05-30T21:19:35.973Z,3.20
2019-05-30T21:22:05.893Z,3.40
2019-05-30T21:24:36.395Z,2.70
2019-05-30T21:27:06.602Z,3.00
2019-05-30T21:29:36.772Z,3.57
2019-05-30T21:32:06.832Z,3.07
2019-05-30T21:34:37.700Z,4.63
2019-05-30T21:37:07.768Z,2.73
2019-05-30T21:39:37.922Z,3.17
2019-05-30T21:42:07.980Z,3.10
2019-05-30T21:44:38.427Z,2.90
2019-05-30T21:47:08.398Z,4.07
2019-05-30T21:49:38.880Z,3.07
2019-05-30T21:52:09.009Z,3.27
2019-05-30T21:54:39.783Z,3.50
2019-05-30T21:57:09.763Z,3.13
2019-05-30T21:59:40.210Z,3.23
2019-05-30T22:02:10.395Z,3.10
2019-05-30T22:04:40.502Z,4.47
2019-05-30T22:07:10.452Z,2.97
2019-05-30T22:09:41.172Z,3.43
2019-05-30T22:12:11.181Z,3.00
2019-05-30T22:14:41.731Z,2.93
2019-05-30T22:17:11.687Z,3.30
2019-05-30T22:19:41.748Z,3.57
2019-05-30T22:22:11.739Z,4.07
2019-05-30T22:24:42.188Z,3.30
2019-05-30T22:27:12.224Z,3.03
2019-05-30T22:29:42.285Z,4.43
2019-05-30T22:32:12.285Z,3.07
2019-05-30T22:34:42.683Z,3.83
2019-05-30T22:37:12.776Z,2.90
2019-05-30T22:39:42.796Z,3.13
2019-05-30T22:42:12.757Z,3.97
2019-05-30T22:44:43.932Z,3.17
2019-05-30T22:47:13.936Z,4.60
2019-05-30T22:49:44.654Z,3.03
2019-05-30T22:52:14.764Z,3.40
2019-05-30T22:54:45.186Z,5.10
2019-05-30T22:57:15.256Z,3.63
2019-05-30T22:59:45.331Z,4.57
2019-05-30T23:02:15.355Z,4.63
2019-05-30T23:04:45.986Z,4.30
2019-05-30T23:07:16.955Z,3.47
2019-05-30T23:09:47.752Z,3.37
2019-05-30T23:12:19.721Z,3.87
2019-05-30T23:14:50.071Z,3.33
2019-05-30T23:17:20.092Z,3.70
2019-05-30T23:19:51.433Z,4.00
2019-05-30T23:22:21.671Z,3.90
2019-05-30T23:24:52.312Z,4.80
2019-05-30T23:27:23.163Z,3.90
2019-05-30T23:29:53.946Z,4.67
2019-05-30T23:32:24.021Z,5.07
2019-05-30T23:34:54.572Z,4.23
2019-05-30T23:37:24.537Z,4.20
2019-05-30T23:39:55.373Z,3.90
2019-05-30T23:42:25.393Z,3.80
2019-05-30T23:44:55.464Z,3.63
2019-05-30T23:47:25.530Z,4.03
2019-05-30T23:49:55.968Z,4.83
2019-05-30T23:52:26.087Z,3.50
2019-05-30T23:54:56.305Z,4.13
2019-05-30T23:57:26.269Z,3.83
2019-05-30T23:59:56.855Z,4.33
